createdAt,value
2023-03-18T00:00:17.754Z,5.64
2023-03-18T00:03:04.701Z,5.59
2023-03-18T00:05:31.904Z,5.53
2023-03-18T00:07:59.206Z,5.45
2023-03-18T00:10:26.429Z,5.43
2023-03-18T00:12:55.367Z,5.55
2023-03-18T00:15:23.088Z,5.51
2023-03-18T00:17:49.967Z,5.50
2023-03-18T00:20:29.065Z,5.46
2023-03-18T00:22:58.468Z,5.47
2023-03-18T00:25:26.526Z,5.51
2023-03-18T00:27:53.442Z,5.43
2023-03-18T00:30:20.624Z,5.41
2023-03-18T00:32:47.817Z,5.41
2023-03-18T00:35:16.663Z,5.43
2023-03-18T00:37:43.603Z,5.38
2023-03-18T00:40:17.465Z,5.35
2023-03-18T00:42:47.887Z,5.36
2023-03-18T00:45:17.326Z,5.36
2023-03-18T00:47:44.351Z,5.37
2023-03-18T00:50:11.759Z,5.36
2023-03-18T00:52:39.682Z,5.33
2023-03-18T00:55:07.246Z,5.31
2023-03-18T00:57:34.712Z,5.29
2023-03-18T01:00:02.680Z,5.30
2023-03-18T01:02:29.967Z,5.31
2023-03-18T01:05:01.802Z,5.34
2023-03-18T01:07:28.741Z,5.29
2023-03-18T01:09:56.277Z,5.32
2023-03-18T01:12:25.683Z,5.30
2023-03-18T01:14:53.084Z,5.34
2023-03-18T01:17:20.858Z,5.28
2023-03-18T01:19:48.894Z,5.31
2023-03-18T01:22:16.287Z,5.27
2023-03-18T01:24:47.370Z,5.27
2023-03-18T01:27:16.396Z,5.26
2023-03-18T01:29:46.629Z,5.22
2023-03-18T01:32:19.447Z,5.24
2023-03-18T01:34:47.001Z,5.21
2023-03-18T01:37:14.082Z,5.20
2023-03-18T01:39:46.720Z,5.22
2023-03-18T01:42:21.396Z,5.18
2023-03-18T01:44:48.900Z,5.10
2023-03-18T01:47:18.761Z,5.13
2023-03-18T01:49:53.247Z,5.08
2023-03-18T01:52:22.677Z,5.07
2023-03-18T01:54:54.713Z,5.06
2023-03-18T01:57:22.688Z,5.03
2023-03-18T01:59:51.091Z,5.03
2023-03-18T02:02:18.347Z,4.99
2023-03-18T02:04:48.285Z,4.92
2023-03-18T02:07:16.764Z,4.85
2023-03-18T02:09:44.814Z,4.90
2023-03-18T02:12:19.787Z,4.93
2023-03-18T02:14:50.277Z,4.92
2023-03-18T02:17:19.725Z,4.90
2023-03-18T02:19:50.053Z,4.84
2023-03-18T02:22:23.789Z,4.86
2023-03-18T02:24:58.139Z,4.87
2023-03-18T02:27:26.803Z,4.87
2023-03-18T02:29:57.407Z,4.88
2023-03-18T02:32:27.964Z,4.83
2023-03-18T02:34:56.490Z,4.81
2023-03-18T02:37:24.360Z,4.74
2023-03-18T02:39:54.481Z,4.77
2023-03-18T02:42:32.330Z,4.73
2023-03-18T02:45:01.686Z,4.72
2023-03-18T02:47:44.122Z,4.75
2023-03-18T02:50:13.942Z,4.78
2023-03-18T02:52:40.888Z,4.73
2023-03-18T02:55:08.978Z,4.68
2023-03-18T02:57:36.725Z,4.66
2023-03-18T03:00:05.850Z,4.63
2023-03-18T03:02:35.497Z,4.64
2023-03-18T03:05:03.015Z,4.65
2023-03-18T03:07:30.268Z,4.64
2023-03-18T03:10:00.219Z,4.64
2023-03-18T03:12:27.353Z,4.56
2023-03-18T03:14:57.694Z,4.55
2023-03-18T03:17:27.601Z,4.50
2023-03-18T03:19:54.829Z,4.47
2023-03-18T03:22:22.027Z,4.47
2023-03-18T03:24:49.306Z,4.41
2023-03-18T03:27:16.747Z,4.44
2023-03-18T03:29:44.781Z,4.36
2023-03-18T03:32:14.738Z,4.30
2023-03-18T03:34:44.122Z,4.28
2023-03-18T03:37:11.921Z,4.29
2023-03-18T03:39:39.464Z,4.29
2023-03-18T03:42:06.507Z,4.28
2023-03-18T03:44:33.683Z,4.26
2023-03-18T03:47:00.546Z,4.20
2023-03-18T03:49:27.790Z,4.17
2023-03-18T03:51:56.772Z,4.18
2023-03-18T03:54:25.702Z,4.12
2023-03-18T03:56:53.253Z,4.11
2023-03-18T03:59:20.510Z,4.07
2023-03-18T04:02:07.691Z,4.04
2023-03-18T04:04:35.539Z,3.98
2023-03-18T04:07:03.332Z,3.94
2023-03-18T04:09:30.579Z,3.90
2023-03-18T04:11:57.559Z,3.91
2023-03-18T04:14:24.895Z,3.80
2023-03-18T04:16:51.883Z,3.80
2023-03-18T04:19:19.243Z,3.71
2023-03-18T04:21:46.231Z,3.64
2023-03-18T04:24:13.419Z,3.65
2023-03-18T04:26:41.593Z,3.61
2023-03-18T04:29:09.576Z,3.56
2023-03-18T04:31:36.491Z,3.50
2023-03-18T04:34:03.972Z,3.53
2023-03-18T04:36:33.289Z,3.56
2023-03-18T04:39:01.475Z,3.54
2023-03-18T04:41:28.583Z,3.50
2023-03-18T04:43:58.650Z,3.44
2023-03-18T04:46:36.662Z,3.39
2023-03-18T04:49:04.260Z,3.35
2023-03-18T04:51:31.445Z,3.37
2023-03-18T04:53:59.164Z,3.35
2023-03-18T04:56:31.342Z,3.33
2023-03-18T04:59:01.032Z,3.30
2023-03-18T05:01:31.459Z,3.31
2023-03-18T05:04:01.468Z,3.35
2023-03-18T05:06:37.469Z,3.34
2023-03-18T05:09:10.018Z,3.32
2023-03-18T05:11:37.002Z,3.32
2023-03-18T05:14:22.870Z,3.34
2023-03-18T05:16:51.073Z,3.40
2023-03-18T05:19:18.394Z,3.47
2023-03-18T05:21:56.739Z,3.45
2023-03-18T05:24:24.985Z,3.53
2023-03-18T05:26:52.324Z,3.57
2023-03-18T05:29:24.127Z,3.60
2023-03-18T05:31:58.688Z,3.64
2023-03-18T05:34:27.614Z,3.70
2023-03-18T05:36:55.143Z,3.81
2023-03-18T05:39:22.754Z,3.92
2023-03-18T05:41:50.018Z,3.96
2023-03-18T05:44:24.275Z,4.05
2023-03-18T05:46:53.022Z,4.10
2023-03-18T05:49:41.265Z,4.28
2023-03-18T05:52:20.759Z,4.85
2023-03-18T05:54:51.666Z,5.15
2023-03-18T05:57:25.346Z,5.01
2023-03-18T05:59:59.594Z,4.83
2023-03-18T06:02:27.848Z,4.79
2023-03-18T06:04:55.775Z,4.95
2023-03-18T06:07:23.761Z,5.22
2023-03-18T06:09:53.555Z,5.35
2023-03-18T06:12:23.124Z,5.39
2023-03-18T06:14:50.712Z,5.64
2023-03-18T06:17:17.990Z,6.21
2023-03-18T06:19:45.929Z,6.51
2023-03-18T06:22:12.842Z,6.41
2023-03-18T06:24:40.094Z,7.33
2023-03-18T06:27:07.321Z,7.76
2023-03-18T06:29:35.883Z,7.70
2023-03-18T06:32:10.095Z,7.67
2023-03-18T06:34:38.070Z,6.65
2023-03-18T06:37:06.089Z,6.61
2023-03-18T06:39:38.147Z,6.56
2023-03-18T06:42:08.636Z,6.59
2023-03-18T06:44:42.157Z,6.36
2023-03-18T06:47:18.755Z,6.61
2023-03-18T06:49:53.032Z,6.71
2023-03-18T06:52:28.398Z,7.13
2023-03-18T06:55:01.261Z,7.27
2023-03-18T06:57:29.073Z,7.52
2023-03-18T06:59:57.365Z,7.12
2023-03-18T07:02:25.182Z,7.24
2023-03-18T07:04:58.173Z,7.80
2023-03-18T07:07:25.335Z,9.14
2023-03-18T07:09:53.846Z,10.53
2023-03-18T07:12:21.482Z,11.15
2023-03-18T07:14:48.852Z,12.23
2023-03-18T07:17:20.128Z,13.13
2023-03-18T07:19:47.763Z,13.65
2023-03-18T07:22:17.397Z,14.91
2023-03-18T07:24:45.444Z,16.01
2023-03-18T07:27:13.531Z,15.59
2023-03-18T07:29:41.077Z,15.19
2023-03-18T07:32:08.241Z,16.42
2023-03-18T07:34:35.456Z,16.15
2023-03-18T07:37:04.128Z,16.22
2023-03-18T07:39:33.743Z,14.50
2023-03-18T07:42:00.588Z,14.67
2023-03-18T07:44:30.374Z,14.39
2023-03-18T07:46:57.420Z,14.44
2023-03-18T07:49:24.782Z,14.51
2023-03-18T07:51:52.363Z,13.18
2023-03-18T07:54:20.224Z,13.38
2023-03-18T07:56:47.188Z,13.53
2023-03-18T07:59:18.650Z,13.00
2023-03-18T08:01:45.797Z,12.50
2023-03-18T08:04:13.340Z,12.86
2023-03-18T08:06:40.300Z,13.37
2023-03-18T08:09:09.104Z,14.00
2023-03-18T08:11:37.044Z,13.87
2023-03-18T08:14:04.256Z,13.95
2023-03-18T08:16:31.157Z,14.03
2023-03-18T08:18:58.913Z,13.41
2023-03-18T08:21:25.846Z,13.41
2023-03-18T08:23:53.048Z,12.90
2023-03-18T08:26:20.411Z,12.13
2023-03-18T08:28:47.788Z,12.76
2023-03-18T08:31:17.259Z,13.26
2023-03-18T08:33:44.658Z,13.13
2023-03-18T08:36:12.370Z,12.45
2023-03-18T08:38:40.233Z,12.46
2023-03-18T08:41:07.181Z,12.02
2023-03-18T08:43:36.007Z,11.93
2023-03-18T08:46:04.938Z,11.66
2023-03-18T08:48:32.339Z,11.96
2023-03-18T08:50:59.751Z,12.01
2023-03-18T08:53:27.020Z,11.61
2023-03-18T08:55:54.198Z,11.49
2023-03-18T08:58:21.637Z,11.46
2023-03-18T09:00:50.331Z,11.56
2023-03-18T09:03:17.672Z,11.46
2023-03-18T09:05:47.973Z,11.86
2023-03-18T09:08:15.480Z,12.09
2023-03-18T09:10:44.787Z,11.86
2023-03-18T09:13:12.813Z,12.06
2023-03-18T09:15:41.259Z,12.18
2023-03-18T09:18:12.100Z,12.36
2023-03-18T09:20:42.865Z,12.13
2023-03-18T09:23:11.570Z,12.07
2023-03-18T09:25:44.918Z,12.36
2023-03-18T09:28:14.326Z,12.10
2023-03-18T09:30:41.882Z,11.67
2023-03-18T09:33:11.606Z,12.11
2023-03-18T09:35:39.044Z,12.31
2023-03-18T09:38:10.405Z,12.25
2023-03-18T09:40:43.436Z,12.36
2023-03-18T09:43:13.612Z,12.75
2023-03-18T09:45:41.140Z,13.35
2023-03-18T09:48:20.110Z,13.22
2023-03-18T09:50:58.229Z,12.77
2023-03-18T09:53:42.973Z,12.90
2023-03-18T09:56:30.206Z,13.46
2023-03-18T09:58:59.902Z,13.82
2023-03-18T10:01:28.468Z,13.65
2023-03-18T10:04:09.982Z,13.62
2023-03-18T10:06:37.683Z,12.73
2023-03-18T10:09:17.211Z,12.17
2023-03-18T10:11:45.189Z,12.29
2023-03-18T10:14:15.374Z,12.27
2023-03-18T10:17:02.746Z,12.60
2023-03-18T10:19:30.054Z,12.68
2023-03-18T10:21:56.938Z,13.01
2023-03-18T10:24:24.700Z,12.56
2023-03-18T10:27:15.376Z,12.73
2023-03-18T10:30:06.768Z,12.81
2023-03-18T10:32:50.027Z,13.17
2023-03-18T10:35:20.056Z,13.02
2023-03-18T10:37:51.522Z,12.84
2023-03-18T10:40:20.176Z,12.59
2023-03-18T10:42:48.885Z,12.45
2023-03-18T10:45:24.168Z,12.72
2023-03-18T10:47:55.449Z,12.78
2023-03-18T10:50:32.138Z,13.08
2023-03-18T10:53:02.754Z,13.31
2023-03-18T10:55:33.083Z,13.41
2023-03-18T10:58:00.080Z,13.14
2023-03-18T11:00:34.121Z,12.97
2023-03-18T11:03:02.725Z,13.35
2023-03-18T11:05:33.840Z,13.54
2023-03-18T11:08:23.489Z,13.41
2023-03-18T11:10:50.647Z,13.30
2023-03-18T11:13:18.642Z,13.21
2023-03-18T11:15:54.205Z,13.01
2023-03-18T11:18:25.527Z,13.32
2023-03-18T11:21:01.251Z,13.33
2023-03-18T11:23:46.248Z,13.66
2023-03-18T11:26:23.389Z,13.94
2023-03-18T11:28:54.735Z,13.89
2023-03-18T11:31:22.128Z,13.86
2023-03-18T11:33:49.772Z,13.72
2023-03-18T11:36:20.904Z,13.62
2023-03-18T11:38:56.586Z,13.54
2023-03-18T11:41:25.147Z,13.74
2023-03-18T11:43:55.507Z,13.62
2023-03-18T11:46:27.819Z,13.77
2023-03-18T11:48:54.903Z,13.72
2023-03-18T11:51:37.357Z,13.98
2023-03-18T11:54:33.743Z,13.88
2023-03-18T11:57:20.369Z,13.92
2023-03-18T12:00:07.242Z,14.01
2023-03-18T12:02:42.732Z,14.12
2023-03-18T12:05:10.938Z,14.04
2023-03-18T12:07:49.505Z,13.90
2023-03-18T12:10:25.983Z,13.44
2023-03-18T12:13:05.197Z,13.47
2023-03-18T12:15:53.251Z,13.55
2023-03-18T12:18:27.674Z,13.76
2023-03-18T12:20:57.140Z,13.96
2023-03-18T12:23:51.208Z,13.73
2023-03-18T12:26:23.371Z,13.95
2023-03-18T12:28:57.206Z,13.90
2023-03-18T12:31:36.501Z,13.82
2023-03-18T12:34:04.400Z,13.91
2023-03-18T12:36:38.042Z,14.06
2023-03-18T12:39:12.556Z,14.05
2023-03-18T12:41:48.887Z,14.07
2023-03-18T12:44:27.928Z,14.10
2023-03-18T12:47:01.539Z,13.93
2023-03-18T12:49:33.125Z,13.57
2023-03-18T12:52:18.751Z,13.85
2023-03-18T12:54:53.966Z,13.85
2023-03-18T12:57:32.050Z,13.93
2023-03-18T13:00:06.719Z,14.14
2023-03-18T13:02:46.139Z,14.27
2023-03-18T13:05:18.555Z,14.17
2023-03-18T13:08:05.569Z,14.13
2023-03-18T13:10:35.852Z,14.12
2023-03-18T13:13:07.806Z,14.09
2023-03-18T13:15:35.894Z,14.17
2023-03-18T13:18:15.390Z,14.11
2023-03-18T13:20:43.321Z,14.26
2023-03-18T13:23:16.308Z,14.44
2023-03-18T13:25:46.547Z,14.39
2023-03-18T13:28:23.041Z,14.53
2023-03-18T13:30:59.502Z,14.34
2023-03-18T13:33:42.070Z,14.44
2023-03-18T13:36:19.470Z,14.35
2023-03-18T13:39:04.879Z,14.26
2023-03-18T13:41:52.305Z,14.40
2023-03-18T13:44:23.751Z,14.42
2023-03-18T13:47:17.403Z,14.45
2023-03-18T13:49:47.210Z,14.43
2023-03-18T13:52:26.516Z,14.48
2023-03-18T13:54:53.793Z,14.43
2023-03-18T13:57:26.708Z,14.45
2023-03-18T14:00:14.923Z,14.31
2023-03-18T14:02:47.833Z,14.33
2023-03-18T14:05:35.485Z,14.26
2023-03-18T14:08:26.413Z,14.26
2023-03-18T14:11:13.617Z,14.33
2023-03-18T14:13:40.878Z,14.26
2023-03-18T14:16:14.990Z,14.35
2023-03-18T14:18:43.239Z,14.39
2023-03-18T14:21:23.762Z,14.35
2023-03-18T14:24:10.046Z,14.32
2023-03-18T14:26:37.848Z,14.31
2023-03-18T14:29:05.224Z,14.34
2023-03-18T14:31:38.418Z,14.20
2023-03-18T14:34:05.711Z,14.18
2023-03-18T14:36:51.488Z,14.15
2023-03-18T14:39:22.139Z,14.07
2023-03-18T14:41:52.359Z,14.11
2023-03-18T14:44:41.862Z,14.12
2023-03-18T14:47:35.683Z,14.11
2023-03-18T14:50:25.567Z,14.13
2023-03-18T14:52:55.811Z,14.10
2023-03-18T14:55:25.999Z,14.10
2023-03-18T14:57:55.417Z,13.96
2023-03-18T15:00:24.255Z,14.02
2023-03-18T15:03:00.644Z,13.98
2023-03-18T15:05:32.435Z,14.05
2023-03-18T15:08:00.419Z,14.13
2023-03-18T15:10:31.806Z,14.12
2023-03-18T15:13:00.811Z,14.03
2023-03-18T15:15:28.501Z,14.06
2023-03-18T15:17:55.430Z,14.01
2023-03-18T15:20:25.953Z,13.94
2023-03-18T15:22:55.330Z,13.88
2023-03-18T15:25:25.040Z,13.79
2023-03-18T15:27:53.964Z,13.67
2023-03-18T15:30:32.380Z,13.63
2023-03-18T15:33:05.135Z,13.54
2023-03-18T15:35:33.295Z,13.47
2023-03-18T15:38:03.535Z,13.38
2023-03-18T15:40:32.270Z,13.30
2023-03-18T15:43:04.306Z,13.30
2023-03-18T15:45:32.979Z,13.22
2023-03-18T15:48:05.775Z,13.23
2023-03-18T15:50:34.492Z,13.24
2023-03-18T15:53:06.796Z,13.19
2023-03-18T15:55:36.102Z,13.12
2023-03-18T15:58:06.016Z,13.08
2023-03-18T16:00:34.251Z,13.05
2023-03-18T16:03:01.238Z,13.01
2023-03-18T16:05:29.125Z,12.95
2023-03-18T16:07:56.121Z,12.96
2023-03-18T16:10:26.328Z,12.88
2023-03-18T16:12:55.175Z,12.91
2023-03-18T16:15:24.096Z,12.96
2023-03-18T16:17:53.729Z,12.96
2023-03-18T16:20:22.984Z,12.93
2023-03-18T16:22:50.355Z,12.84
2023-03-18T16:25:18.520Z,12.82
2023-03-18T16:27:47.212Z,12.86
2023-03-18T16:30:26.070Z,12.84
2023-03-18T16:32:53.943Z,12.81
2023-03-18T16:35:25.733Z,12.77
2023-03-18T16:37:53.403Z,12.73
2023-03-18T16:40:22.302Z,12.66
2023-03-18T16:42:49.670Z,12.63
2023-03-18T16:45:18.731Z,12.58
2023-03-18T16:47:46.630Z,12.47
2023-03-18T16:50:24.589Z,12.40
2023-03-18T16:52:51.709Z,12.29
2023-03-18T16:55:20.013Z,12.21
2023-03-18T16:57:49.930Z,12.07
2023-03-18T17:10:27.527Z,11.66
2023-03-18T17:12:59.751Z,11.60
2023-03-18T17:15:32.325Z,11.63
2023-03-18T17:18:08.110Z,11.62
2023-03-18T17:20:36.178Z,11.51
2023-03-18T17:23:04.644Z,11.44
2023-03-18T17:25:33.126Z,11.44
2023-03-18T17:28:05.265Z,11.30
2023-03-18T17:30:34.366Z,11.17
2023-03-18T17:33:02.759Z,11.11
2023-03-18T17:35:32.829Z,11.03
2023-03-18T17:38:01.345Z,10.94
2023-03-18T17:40:30.396Z,10.89
2023-03-18T17:42:58.324Z,10.87
2023-03-18T17:45:30.560Z,10.85
2023-03-18T17:48:10.682Z,10.73
2023-03-18T17:50:38.470Z,10.65
2023-03-18T17:53:08.982Z,10.64
2023-03-18T17:55:37.467Z,10.63
2023-03-18T17:58:10.958Z,10.50
2023-03-18T18:00:39.153Z,10.41
2023-03-18T18:03:08.620Z,10.38
2023-03-18T18:05:36.545Z,10.39
2023-03-18T18:08:11.223Z,10.41
2023-03-18T18:10:39.101Z,10.39
2023-03-18T18:13:14.274Z,10.43
2023-03-18T18:15:42.124Z,10.40
2023-03-18T18:18:27.180Z,10.34
2023-03-18T18:21:02.138Z,10.28
2023-03-18T18:23:32.392Z,10.24
2023-03-18T18:26:01.322Z,10.14
2023-03-18T18:28:31.785Z,10.13
2023-03-18T18:31:01.058Z,10.15
2023-03-18T18:33:32.422Z,10.03
2023-03-18T18:36:00.382Z,10.02
2023-03-18T18:38:28.926Z,10.00
2023-03-18T18:40:58.874Z,9.91
2023-03-18T18:43:27.419Z,9.86
2023-03-18T18:46:00.867Z,9.93
2023-03-18T18:48:34.215Z,9.90
2023-03-18T18:51:03.868Z,9.82
2023-03-18T18:53:36.303Z,9.78
2023-03-18T18:56:16.314Z,9.85
2023-03-18T18:58:44.859Z,9.85
2023-03-18T19:01:15.642Z,9.77
2023-03-18T19:03:44.864Z,9.72
2023-03-18T19:06:35.224Z,9.67
2023-03-18T19:09:09.723Z,9.63
2023-03-18T19:11:37.876Z,9.58
2023-03-18T19:14:18.487Z,9.54
2023-03-18T19:16:47.560Z,9.47
2023-03-18T19:19:20.157Z,9.45
2023-03-18T19:21:48.104Z,9.43
2023-03-18T19:24:28.308Z,9.30
2023-03-18T19:26:58.091Z,9.29
2023-03-18T19:29:27.572Z,9.24
2023-03-18T19:31:55.859Z,9.21
2023-03-18T19:34:24.565Z,9.19
2023-03-18T19:36:54.647Z,9.12
2023-03-18T19:39:23.350Z,9.05
2023-03-18T19:41:53.093Z,8.95
2023-03-18T19:44:22.487Z,8.85
2023-03-18T19:46:52.188Z,8.85
2023-03-18T19:49:23.349Z,8.82
2023-03-18T19:51:52.363Z,8.76
2023-03-18T19:54:24.188Z,8.70
2023-03-18T19:56:53.291Z,8.65
2023-03-18T19:59:24.622Z,8.63
2023-03-18T20:01:53.026Z,8.53
2023-03-18T20:04:24.198Z,8.51
2023-03-18T20:06:51.889Z,8.47
2023-03-18T20:09:21.258Z,8.42
2023-03-18T20:11:53.424Z,8.35
2023-03-18T20:14:25.013Z,8.45
2023-03-18T20:16:54.955Z,8.33
2023-03-18T20:19:24.615Z,8.25
2023-03-18T20:21:53.918Z,8.21
2023-03-18T20:24:26.596Z,8.21
2023-03-18T20:26:55.185Z,8.16
2023-03-18T20:29:25.829Z,8.12
2023-03-18T20:31:54.004Z,8.06
2023-03-18T20:34:23.721Z,7.99
2023-03-18T20:36:53.041Z,7.83
2023-03-18T20:39:22.128Z,7.88
2023-03-18T20:41:51.122Z,7.67
2023-03-18T20:44:20.649Z,7.48
2023-03-18T20:46:48.634Z,7.29
2023-03-18T20:49:17.100Z,7.09
2023-03-18T20:51:45.438Z,6.87
2023-03-18T20:54:18.952Z,6.80
2023-03-18T20:56:47.485Z,6.69
2023-03-18T20:59:15.980Z,6.63
2023-03-18T21:01:44.329Z,6.52
2023-03-18T21:04:13.977Z,6.50
2023-03-18T21:06:42.378Z,6.49
2023-03-18T21:09:12.988Z,6.38
2023-03-18T21:11:41.749Z,6.32
2023-03-18T21:14:14.445Z,6.23
2023-03-18T21:16:42.232Z,6.16
2023-03-18T21:19:10.917Z,6.02
2023-03-18T21:21:39.252Z,5.87
2023-03-18T21:24:27.760Z,5.92
2023-03-18T21:27:04.356Z,6.03
2023-03-18T21:29:33.310Z,5.98
2023-03-18T21:32:03.129Z,6.30
2023-03-18T21:34:30.609Z,6.38
2023-03-18T21:36:57.554Z,6.63
2023-03-18T21:39:25.960Z,6.74
2023-03-18T21:41:53.299Z,6.77
2023-03-18T21:44:20.761Z,6.79
2023-03-18T21:46:48.019Z,6.86
2023-03-18T21:49:16.209Z,6.92
2023-03-18T21:51:43.441Z,6.87
2023-03-18T21:54:18.355Z,6.75
2023-03-18T21:56:45.781Z,6.66
2023-03-18T21:59:13.322Z,6.65
2023-03-18T22:01:40.522Z,6.60
2023-03-18T22:04:08.283Z,6.49
2023-03-18T22:06:35.367Z,6.41
2023-03-18T22:09:03.033Z,6.28
2023-03-18T22:11:30.391Z,6.12
2023-03-18T22:13:57.916Z,6.11
2023-03-18T22:16:24.911Z,6.07
2023-03-18T22:18:52.438Z,6.11
2023-03-18T22:21:23.254Z,6.18
2023-03-18T22:23:51.615Z,6.27
2023-03-18T22:26:19.196Z,6.30
2023-03-18T22:28:46.773Z,6.33
2023-03-18T22:31:21.751Z,6.28
2023-03-18T22:33:49.238Z,6.21
2023-03-18T22:36:16.741Z,6.14
2023-03-18T22:38:44.358Z,6.07
2023-03-18T22:41:18.210Z,5.99
2023-03-18T22:43:46.144Z,5.97
2023-03-18T22:46:13.257Z,5.90
2023-03-18T22:48:40.587Z,5.86
2023-03-18T22:51:07.880Z,5.80
2023-03-18T22:53:39.982Z,5.68
2023-03-18T22:56:13.505Z,5.59
2023-03-18T22:58:40.756Z,5.49
2023-03-18T23:01:07.628Z,5.50
2023-03-18T23:03:36.496Z,5.60
2023-03-18T23:06:03.868Z,5.57
2023-03-18T23:08:31.235Z,5.53
2023-03-18T23:10:59.952Z,5.38
2023-03-18T23:13:32.317Z,5.20
2023-03-18T23:15:59.393Z,5.12
2023-03-18T23:18:27.212Z,5.01
2023-03-18T23:20:54.153Z,4.90
2023-03-18T23:23:21.780Z,4.90
2023-03-18T23:25:49.586Z,4.88
2023-03-18T23:28:20.120Z,4.79
2023-03-18T23:30:47.893Z,4.63
2023-03-18T23:33:15.690Z,4.51
2023-03-18T23:35:44.230Z,4.46
2023-03-18T23:38:11.910Z,4.41
2023-03-18T23:40:41.689Z,4.38
2023-03-18T23:43:09.326Z,4.37
2023-03-18T23:45:37.492Z,4.35
2023-03-18T23:48:05.612Z,4.37
2023-03-18T23:50:32.622Z,4.33
2023-03-18T23:53:02.385Z,4.28
2023-03-18T23:55:34.551Z,4.24
2023-03-18T23:58:12.693Z,4.19
